Time;durP1;ratioP1;P1;durP2;ratioP2;P2;SDS_P1;SDS_P2;PMS_P1;PMS_P2;Temp;Humidity;BMP_temperature;BMP_pressure;BME280_temperature;BME280_humidity;BME280_pressure;Samples;Min_cycle;Max_cycle;Signal;HPM_P1;HPM_P2
2023/05/25 00:03:51;;;;;;;;;;;10.80;99.90;;;;;;8192438;28;20285;-81
2023/05/25 00:07:52;;;;;;;;;;;10.10;99.90;;;;;;8193356;28;20354;-79
2023/05/25 00:11:53;;;;;;;;;;;10.10;99.90;;;;;;8206664;28;19915;-80
2023/05/25 00:15:53;;;;;;;;;;;10.10;99.90;;;;;;8198465;28;19922;-80
2023/05/25 00:19:56;;;;;;;;;;;9.90;99.90;;;;;;8199510;28;20009;-81
2023/05/25 00:23:57;;;;;;;;;;;9.80;99.90;;;;;;8201484;28;19918;-81
2023/05/25 00:27:57;;;;;;;;;;;9.60;99.90;;;;;;8200466;28;20025;-81
2023/05/25 00:31:58;;;;;;;;;;;9.60;99.90;;;;;;8199403;28;19965;-80
2023/05/25 00:35:59;;;;;;;;;;;9.60;99.90;;;;;;8206220;28;19914;-81
2023/05/25 00:39:59;;;;;;;;;;;9.60;99.90;;;;;;8207908;28;20023;-80
2023/05/25 00:44:00;;;;;;;;;;;9.60;99.90;;;;;;8202261;28;19911;-79
2023/05/25 00:48:00;;;;;;;;;;;9.80;99.90;;;;;;8204592;28;19959;-80
2023/05/25 00:52:01;;;;;;;;;;;9.80;99.90;;;;;;8198554;28;20303;-80
2023/05/25 00:56:03;;;;;;;;;;;9.70;99.90;;;;;;8205192;28;19960;-80
2023/05/25 01:00:10;;;;;;;;;;;11.10;99.90;;;;;;8197620;28;19941;-80
2023/05/25 01:04:13;;;;;;;;;;;9.80;99.90;;;;;;8198998;28;19961;-79
2023/05/25 01:08:16;;;;;;;;;;;9.50;99.90;;;;;;8203797;28;19950;-81
2023/05/25 01:12:17;;;;;;;;;;;9.50;99.90;;;;;;8201923;29;19910;-79
2023/05/25 01:16:19;;;;;;;;;;;9.50;99.90;;;;;;8219011;28;20272;-79
2023/05/25 01:20:20;;;;;;;;;;;9.60;99.90;;;;;;8204273;29;20504;-79
2023/05/25 01:24:33;;;;;;;;;;;9.60;99.90;;;;;;8202518;29;19915;-79
2023/05/25 01:28:39;;;;;;;;;;;9.60;99.90;;;;;;8196500;28;19961;-81
2023/05/25 01:32:43;;;;;;;;;;;9.60;99.90;;;;;;8194042;29;19911;-80
2023/05/25 01:36:44;;;;;;;;;;;9.60;99.90;;;;;;8204235;28;20418;-80
2023/05/25 01:40:44;;;;;;;;;;;9.50;99.90;;;;;;8201207;28;19920;-79
2023/05/25 01:44:45;;;;;;;;;;;9.30;99.90;;;;;;8209627;28;19969;-81
2023/05/25 01:48:52;;;;;;;;;;;9.50;99.90;;;;;;8193785;28;20656;-80
2023/05/25 01:52:52;;;;;;;;;;;9.40;99.90;;;;;;8201301;28;19921;-80
2023/05/25 01:56:53;;;;;;;;;;;9.40;99.90;;;;;;8211942;28;19997;-80
2023/05/25 02:00:55;;;;;;;;;;;9.50;99.90;;;;;;8198998;29;19911;-80
2023/05/25 02:04:55;;;;;;;;;;;9.40;99.90;;;;;;8197969;28;19921;-80
2023/05/25 02:08:56;;;;;;;;;;;9.50;99.90;;;;;;8201095;28;19911;-78
2023/05/25 02:12:56;;;;;;;;;;;9.40;99.90;;;;;;8201922;28;20035;-80
2023/05/25 02:17:00;;;;;;;;;;;9.40;99.90;;;;;;8201731;28;19922;-80
2023/05/25 02:21:01;;;;;;;;;;;9.40;99.90;;;;;;8201116;28;20017;-80
2023/05/25 02:25:01;;;;;;;;;;;9.30;99.90;;;;;;8193848;28;19911;-79
2023/05/25 02:29:02;;;;;;;;;;;9.60;99.90;;;;;;8200303;29;20454;-78
2023/05/25 02:33:03;;;;;;;;;;;9.40;99.90;;;;;;8191327;28;19910;-80
2023/05/25 02:37:03;;;;;;;;;;;9.30;99.90;;;;;;8194481;28;19915;-79
2023/05/25 02:41:04;;;;;;;;;;;9.40;99.90;;;;;;8195728;29;20406;-79
2023/05/25 02:45:05;;;;;;;;;;;9.20;99.90;;;;;;8216081;28;19914;-78
2023/05/25 02:49:06;;;;;;;;;;;9.40;99.90;;;;;;8198408;29;19950;-80
2023/05/25 02:53:06;;;;;;;;;;;9.40;99.90;;;;;;8201075;28;19922;-80
2023/05/25 02:57:07;;;;;;;;;;;9.20;99.90;;;;;;8196761;28;19915;-79
2023/05/25 03:01:09;;;;;;;;;;;9.20;99.90;;;;;;8199675;29;20509;-80
2023/05/25 03:05:09;;;;;;;;;;;9.50;99.90;;;;;;8197416;28;19919;-80
2023/05/25 03:09:11;;;;;;;;;;;9.10;99.90;;;;;;8198538;29;19915;-79
2023/05/25 03:13:11;;;;;;;;;;;9.10;99.90;;;;;;8199615;28;20227;-80
2023/05/25 03:17:12;;;;;;;;;;;9.00;99.90;;;;;;8211497;28;19965;-79
2023/05/25 03:21:12;;;;;;;;;;;8.60;99.90;;;;;;8192055;28;19910;-79
2023/05/25 03:25:12;;;;;;;;;;;8.90;99.90;;;;;;8215217;28;19918;-80
2023/05/25 03:29:13;;;;;;;;;;;8.80;99.90;;;;;;8185900;28;19911;-79
2023/05/25 03:33:13;;;;;;;;;;;8.40;99.90;;;;;;8197075;28;19921;-79
2023/05/25 03:37:14;;;;;;;;;;;8.80;99.90;;;;;;8214776;28;20010;-80
2023/05/25 03:41:14;;;;;;;;;;;8.00;99.90;;;;;;8193436;28;19982;-80
2023/05/25 03:45:15;;;;;;;;;;;8.30;99.90;;;;;;8193912;28;20009;-80
2023/05/25 03:49:16;;;;;;;;;;;8.20;99.90;;;;;;8195038;28;20311;-78
2023/05/25 03:53:16;;;;;;;;;;;8.10;99.90;;;;;;8198247;28;19914;-80
2023/05/25 03:57:17;;;;;;;;;;;7.90;99.90;;;;;;8193745;28;19910;-80
2023/05/25 04:01:17;;;;;;;;;;;7.90;99.90;;;;;;8259925;23;20654;-80
2023/05/25 04:05:18;;;;;;;;;;;8.50;99.90;;;;;;8256707;28;19922;-81
2023/05/25 04:09:21;;;;;;;;;;;8.80;99.90;;;;;;8260089;28;19925;-79
2023/05/25 04:13:24;;;;;;;;;;;8.00;99.90;;;;;;8262784;28;19956;-81
2023/05/25 04:17:25;;;;;;;;;;;8.40;99.90;;;;;;8262143;28;20050;-80
2023/05/25 04:21:25;;;;;;;;;;;8.60;99.90;;;;;;8266323;28;20271;-81
2023/05/25 04:25:26;;;;;;;;;;;10.20;99.90;;;;;;8261501;28;20528;-81
2023/05/25 04:29:27;;;;;;;;;;;8.90;99.90;;;;;;8267258;28;20620;-81
2023/05/25 04:33:28;;;;;;;;;;;9.40;99.90;;;;;;8254860;28;19914;-80
2023/05/25 04:37:29;;;;;;;;;;;9.30;99.90;;;;;;8263799;28;19917;-80
2023/05/25 04:41:29;;;;;;;;;;;9.00;99.90;;;;;;8263081;28;20263;-81
2023/05/25 04:45:32;;;;;;;;;;;9.30;99.90;;;;;;8261514;28;19922;-80
2023/05/25 04:49:32;;;;;;;;;;;9.80;99.90;;;;;;8256478;28;19992;-82
2023/05/25 04:53:34;;;;;;;;;;;10.00;99.90;;;;;;8262169;28;19945;-81
2023/05/25 04:57:34;;;;;;;;;;;10.50;99.90;;;;;;8262252;28;19910;-81
2023/05/25 05:01:39;;;;;;;;;;;11.10;99.90;;;;;;8263528;28;19918;-81
2023/05/25 05:05:39;;;;;;;;;;;11.30;99.90;;;;;;8255510;28;19914;-81
2023/05/25 05:09:40;;;;;;;;;;;11.80;99.90;;;;;;8251814;28;19940;-81
2023/05/25 05:13:40;;;;;;;;;;;10.70;99.90;;;;;;8264730;28;19921;-83
2023/05/25 05:17:41;;;;;;;;;;;11.00;99.90;;;;;;8256131;28;20003;-83
2023/05/25 05:21:41;;;;;;;;;;;12.00;99.90;;;;;;8264989;28;19909;-83
2023/05/25 05:25:52;;;;;;;;;;;10.80;99.90;;;;;;8260335;28;19924;-83
2023/05/25 05:29:55;;;;;;;;;;;11.20;99.90;;;;;;8251928;28;19913;-83
2023/05/25 05:33:56;;;;;;;;;;;12.30;99.90;;;;;;8275340;23;19966;-83
2023/05/25 05:38:14;;;;;;;;;;;10.80;99.90;;;;;;8221481;28;20287;-83
2023/05/25 05:42:15;;;;;;;;;;;12.00;99.90;;;;;;8233507;28;20414;-83
2023/05/25 05:46:28;;;;;;;;;;;12.10;99.90;;;;;;8223228;28;19919;-83
2023/05/25 05:50:36;;;;;;;;;;;11.40;99.90;;;;;;8242181;28;19918;-84
2023/05/25 05:54:42;;;;;;;;;;;11.30;99.90;;;;;;8231622;28;19950;-84
2023/05/25 05:58:43;;;;;;;;;;;13.00;99.90;;;;;;8225657;28;19968;-84
2023/05/25 06:02:44;;;;;;;;;;;12.40;99.90;;;;;;8234519;28;19916;-84
2023/05/25 06:06:54;;;;;;;;;;;12.80;99.90;;;;;;8229738;28;19914;-83
2023/05/25 06:10:57;;;;;;;;;;;12.20;99.90;;;;;;8245863;28;19924;-85
2023/05/25 06:14:57;;;;;;;;;;;11.80;99.90;;;;;;8231792;28;19921;-84
2023/05/25 06:18:58;;;;;;;;;;;13.00;99.90;;;;;;8231773;28;19918;-84
2023/05/25 06:22:58;;;;;;;;;;;12.10;99.90;;;;;;8231367;28;19910;-84
2023/05/25 06:26:59;;;;;;;;;;;12.20;99.90;;;;;;8233037;28;19939;-84
2023/05/25 06:30:59;;;;;;;;;;;13.60;99.90;;;;;;8242746;28;19921;-84
2023/05/25 06:35:01;;;;;;;;;;;12.30;99.90;;;;;;8223340;28;20252;-84
2023/05/25 06:39:01;;;;;;;;;;;12.70;99.90;;;;;;8226193;28;19914;-85
2023/05/25 06:43:02;;;;;;;;;;;13.10;99.90;;;;;;8224627;28;19917;-84
2023/05/25 06:47:02;;;;;;;;;;;13.00;99.90;;;;;;8233718;28;19914;-84
2023/05/25 06:51:03;;;;;;;;;;;12.80;99.90;;;;;;8217983;28;19917;-84
2023/05/25 06:55:04;;;;;;;;;;;12.70;99.90;;;;;;8244729;28;19937;-84
2023/05/25 06:59:04;;;;;;;;;;;12.90;99.90;;;;;;8218647;28;19915;-85
2023/05/25 07:03:05;;;;;;;;;;;13.00;99.90;;;;;;8250251;28;19902;-84
2023/05/25 07:07:05;;;;;;;;;;;14.40;99.90;;;;;;8257090;28;20311;-86
2023/05/25 07:11:09;;;;;;;;;;;13.70;99.90;;;;;;8220588;28;19911;-85
2023/05/25 07:15:09;;;;;;;;;;;14.80;99.90;;;;;;8224185;28;20298;-87
2023/05/25 07:19:10;;;;;;;;;;;14.00;99.90;;;;;;8229560;28;19917;-83
2023/05/25 07:23:11;;;;;;;;;;;14.10;99.90;;;;;;8226630;28;19965;-84
2023/05/25 07:27:15;;;;;;;;;;;15.60;99.90;;;;;;8229063;28;19914;-85
2023/05/25 07:31:17;;;;;;;;;;;14.50;99.90;;;;;;8226896;28;22955;-85
2023/05/25 07:35:18;;;;;;;;;;;13.90;99.90;;;;;;8220485;28;19915;-84
2023/05/25 07:39:18;;;;;;;;;;;14.80;99.90;;;;;;8229463;28;19917;-81
2023/05/25 07:43:18;;;;;;;;;;;13.70;99.90;;;;;;8229854;28;20049;-83
2023/05/25 07:47:19;;;;;;;;;;;14.20;99.90;;;;;;8215516;28;19914;-84
2023/05/25 07:51:22;;;;;;;;;;;15.00;99.90;;;;;;8223394;28;19924;-84
2023/05/25 07:55:22;;;;;;;;;;;13.80;99.90;;;;;;8217020;28;19910;-85
2023/05/25 07:59:23;;;;;;;;;;;15.30;99.90;;;;;;8228169;28;19914;-84
2023/05/25 08:03:23;;;;;;;;;;;14.70;99.90;;;;;;8222120;28;19961;-83
2023/05/25 08:07:24;;;;;;;;;;;14.20;99.90;;;;;;8223088;28;19914;-84
2023/05/25 08:11:26;;;;;;;;;;;14.50;99.90;;;;;;8238620;28;19910;-85
2023/05/25 08:15:27;;;;;;;;;;;14.60;99.90;;;;;;8223531;28;19916;-83
2023/05/25 08:19:30;;;;;;;;;;;15.30;99.90;;;;;;8228361;28;19914;-85
2023/05/25 08:23:30;;;;;;;;;;;14.90;99.90;;;;;;8238324;28;19910;-85
2023/05/25 08:27:31;;;;;;;;;;;15.10;99.90;;;;;;8223492;28;19922;-84
2023/05/25 08:31:31;;;;;;;;;;;13.90;99.90;;;;;;8235122;28;19962;-84
2023/05/25 08:35:32;;;;;;;;;;;15.00;99.90;;;;;;8219626;28;19910;-83
2023/05/25 08:39:32;;;;;;;;;;;14.00;99.90;;;;;;8224205;28;19981;-84
2023/05/25 08:43:33;;;;;;;;;;;15.40;99.90;;;;;;8230183;28;19910;-85
2023/05/25 08:47:36;;;;;;;;;;;14.70;99.90;;;;;;8220093;28;19914;-82
2023/05/25 08:51:37;;;;;;;;;;;14.30;99.90;;;;;;8222010;28;19911;-84
2023/05/25 08:55:39;;;;;;;;;;;13.80;99.90;;;;;;8221511;28;20016;-85
2023/05/25 08:59:43;;;;;;;;;;;15.70;99.90;;;;;;8232087;28;20391;-84
2023/05/25 09:03:44;;;;;;;;;;;16.10;99.90;;;;;;8227648;28;20346;-83
2023/05/25 09:07:45;;;;;;;;;;;15.90;99.90;;;;;;8232412;28;19918;-86
2023/05/25 09:11:46;;;;;;;;;;;15.20;99.90;;;;;;8223876;28;20413;-86
2023/05/25 09:15:47;;;;;;;;;;;15.30;99.90;;;;;;8238510;28;20303;-85
2023/05/25 09:19:48;;;;;;;;;;;15.40;99.90;;;;;;8241311;28;20371;-83
2023/05/25 09:23:49;;;;;;;;;;;15.30;99.90;;;;;;8220761;28;20236;-86
2023/05/25 09:27:50;;;;;;;;;;;15.50;99.90;;;;;;8232802;28;19921;-86
2023/05/25 09:31:50;;;;;;;;;;;16.60;99.90;;;;;;8225622;28;19918;-86
2023/05/25 09:35:51;;;;;;;;;;;16.60;99.90;;;;;;8233034;28;19910;-86
2023/05/25 09:39:51;;;;;;;;;;;16.50;99.90;;;;;;8229869;28;19911;-85
2023/05/25 09:43:52;;;;;;;;;;;16.20;99.90;;;;;;8230198;28;20351;-86
2023/05/25 09:47:53;;;;;;;;;;;17.10;99.90;;;;;;8233701;28;19921;-84
2023/05/25 09:51:53;;;;;;;;;;;17.10;99.90;;;;;;8233650;28;19957;-85
2023/05/25 09:55:55;;;;;;;;;;;18.00;99.90;;;;;;8231694;28;19960;-84
2023/05/25 09:59:55;;;;;;;;;;;17.30;99.90;;;;;;8249509;28;20306;-84
2023/05/25 10:03:58;;;;;;;;;;;16.60;99.90;;;;;;8233914;28;19910;-85
2023/05/25 10:08:00;;;;;;;;;;;17.00;99.90;;;;;;8232975;28;19918;-83
2023/05/25 10:12:01;;;;;;;;;;;16.20;99.90;;;;;;8231944;28;19910;-86
2023/05/25 10:16:02;;;;;;;;;;;17.50;99.90;;;;;;8232805;28;19917;-86
2023/05/25 10:20:05;;;;;;;;;;;18.40;99.90;;;;;;8231769;28;19914;-85
2023/05/25 10:24:12;;;;;;;;;;;17.30;99.90;;;;;;8227195;28;19911;-85
2023/05/25 10:28:18;;;;;;;;;;;17.30;99.90;;;;;;8232635;28;19964;-84
2023/05/25 10:32:19;;;;;;;;;;;17.20;99.90;;;;;;8217086;28;19925;-82
2023/05/25 10:36:20;;;;;;;;;;;18.40;99.90;;;;;;8224441;28;19910;-85
2023/05/25 10:40:21;;;;;;;;;;;18.90;99.90;;;;;;8247253;28;19917;-86
2023/05/25 10:44:22;;;;;;;;;;;19.00;99.90;;;;;;8232347;28;19957;-85
2023/05/25 10:48:33;;;;;;;;;;;19.80;99.90;;;;;;8245376;28;20012;-85
2023/05/25 10:52:34;;;;;;;;;;;20.30;99.90;;;;;;8225816;28;19917;-86
2023/05/25 10:56:34;;;;;;;;;;;19.00;99.90;;;;;;8231384;28;19914;-85
2023/05/25 11:00:35;;;;;;;;;;;20.10;99.90;;;;;;8226022;28;19916;-85
2023/05/25 11:04:36;;;;;;;;;;;19.00;99.90;;;;;;8257847;28;19906;-81
2023/05/25 11:08:49;;;;;;;;;;;19.00;99.90;;;;;;8240524;28;20374;-84
2023/05/25 11:12:50;;;;;;;;;;;18.40;99.90;;;;;;8218946;28;19910;-85
2023/05/25 11:17:13;;;;;;;;;;;17.70;99.90;;;;;;8226766;28;19950;-86
2023/05/25 11:21:21;;;;;;;;;;;18.40;99.90;;;;;;8216923;28;20387;-84
2023/05/25 11:25:35;;;;;;;;;;;18.80;99.90;;;;;;8229095;28;19910;-83
2023/05/25 11:29:36;;;;;;;;;;;18.80;99.90;;;;;;8239973;28;19973;-84
2023/05/25 11:33:36;;;;;;;;;;;19.10;99.90;;;;;;8219385;28;19922;-84
2023/05/25 11:37:40;;;;;;;;;;;20.00;99.90;;;;;;8217608;28;19915;-86
2023/05/25 11:41:47;;;;;;;;;;;20.20;99.90;;;;;;8230734;28;19997;-85
2023/05/25 11:45:54;;;;;;;;;;;20.60;99.90;;;;;;8230159;28;19937;-86
2023/05/25 11:49:55;;;;;;;;;;;20.10;99.90;;;;;;8246467;28;19958;-81
2023/05/25 11:53:55;;;;;;;;;;;20.40;99.90;;;;;;8216751;28;19914;-81
2023/05/25 11:58:14;;;;;;;;;;;19.90;99.90;;;;;;8231370;28;19965;-85
2023/05/25 12:02:14;;;;;;;;;;;19.40;99.90;;;;;;8225824;28;19918;-85
2023/05/25 12:06:38;;;;;;;;;;;20.40;99.90;;;;;;8246947;28;20016;-84
2023/05/25 12:10:50;;;;;;;;;;;20.00;99.90;;;;;;8243932;28;19918;-83
2023/05/25 12:14:50;;;;;;;;;;;20.10;99.90;;;;;;8229278;28;19937;-86
2023/05/25 12:18:52;;;;;;;;;;;22.00;99.90;;;;;;8235504;28;19914;-85
2023/05/25 12:22:52;;;;;;;;;;;22.00;99.90;;;;;;8237710;28;19910;-87
2023/05/25 12:26:58;;;;;;;;;;;21.10;99.90;;;;;;8230406;28;20417;-85
2023/05/25 12:30:58;;;;;;;;;;;23.50;99.90;;;;;;8232665;28;19961;-86
2023/05/25 12:35:05;;;;;;;;;;;24.90;99.90;;;;;;8234352;28;20574;-85
2023/05/25 12:39:06;;;;;;;;;;;24.60;99.90;;;;;;8239332;28;19914;-87
2023/05/25 12:43:07;;;;;;;;;;;24.80;99.90;;;;;;8238172;28;20057;-82
2023/05/25 12:47:22;;;;;;;;;;;23.80;99.90;;;;;;8240580;28;19914;-85
2023/05/25 12:51:24;;;;;;;;;;;21.90;99.90;;;;;;8232758;28;19921;-83
2023/05/25 12:55:26;;;;;;;;;;;22.00;99.90;;;;;;8232600;28;20389;-84
2023/05/25 12:59:26;;;;;;;;;;;20.80;99.90;;;;;;8233097;28;19911;-83
2023/05/25 13:03:27;;;;;;;;;;;19.80;99.90;;;;;;8234447;28;19931;-84
2023/05/25 13:07:28;;;;;;;;;;;20.30;99.90;;;;;;8248578;28;19914;-83
2023/05/25 13:11:29;;;;;;;;;;;20.50;99.90;;;;;;8249217;28;19921;-84
2023/05/25 13:15:29;;;;;;;;;;;20.20;99.90;;;;;;8223531;28;19910;-85
2023/05/25 13:19:30;;;;;;;;;;;20.10;99.90;;;;;;8238193;28;20344;-83
2023/05/25 13:23:30;;;;;;;;;;;20.50;99.90;;;;;;8243104;28;19910;-84
2023/05/25 13:27:31;;;;;;;;;;;21.90;99.90;;;;;;8228236;28;19964;-85
2023/05/25 13:31:31;;;;;;;;;;;24.90;99.90;;;;;;8225477;28;20009;-86
2023/05/25 13:35:44;;;;;;;;;;;27.20;99.90;;;;;;8238057;28;19921;-87
2023/05/25 13:39:45;;;;;;;;;;;26.90;99.90;;;;;;8236601;28;19993;-85
2023/05/25 13:43:46;;;;;;;;;;;25.10;99.90;;;;;;8224961;28;20390;-87
2023/05/25 13:47:46;;;;;;;;;;;25.10;99.90;;;;;;8233724;28;19914;-82
2023/05/25 13:51:47;;;;;;;;;;;23.60;99.90;;;;;;8230689;28;19961;-83
2023/05/25 13:55:47;;;;;;;;;;;22.20;99.90;;;;;;8229534;28;19910;-84
2023/05/25 13:59:48;;;;;;;;;;;21.20;99.90;;;;;;8236733;28;19917;-86
2023/05/25 14:03:49;;;;;;;;;;;22.20;99.90;;;;;;8226070;28;19992;-86
2023/05/25 14:07:49;;;;;;;;;;;25.60;99.90;;;;;;8243785;28;19965;-86
2023/05/25 14:11:51;;;;;;;;;;;25.80;99.90;;;;;;8222169;28;20294;-83
2023/05/25 14:15:51;;;;;;;;;;;25.60;99.90;;;;;;8232093;28;20000;-87
2023/05/25 14:19:52;;;;;;;;;;;24.40;99.90;;;;;;8228783;28;19917;-80
2023/05/25 14:23:52;;;;;;;;;;;25.50;99.90;;;;;;8230457;28;19914;-86
2023/05/25 14:27:53;;;;;;;;;;;26.60;98.90;;;;;;8230278;28;20315;-86
2023/05/25 14:31:53;;;;;;;;;;;27.50;98.40;;;;;;8214621;28;20276;-84
2023/05/25 14:35:54;;;;;;;;;;;27.10;96.70;;;;;;8225367;28;19929;-81
2023/05/25 14:39:54;;;;;;;;;;;24.30;99.90;;;;;;8232333;28;19910;-85
2023/05/25 14:43:55;;;;;;;;;;;22.20;99.90;;;;;;8232174;28;20387;-86
2023/05/25 14:47:55;;;;;;;;;;;21.90;99.90;;;;;;8226722;28;19914;-85
2023/05/25 14:51:56;;;;;;;;;;;22.60;99.90;;;;;;8221722;28;19914;-85
2023/05/25 14:55:56;;;;;;;;;;;21.90;99.90;;;;;;8233934;28;19968;-85
2023/05/25 14:59:57;;;;;;;;;;;23.50;99.90;;;;;;8231633;28;19921;-82
2023/05/25 15:03:57;;;;;;;;;;;26.80;99.30;;;;;;8254817;28;19949;-85
2023/05/25 15:07:58;;;;;;;;;;;27.50;98.90;;;;;;8242699;28;19922;-86
2023/05/25 15:11:58;;;;;;;;;;;27.10;96.70;;;;;;8226166;28;19918;-84
2023/05/25 15:15:59;;;;;;;;;;;26.90;97.80;;;;;;8223081;28;19914;-85
2023/05/25 15:20:00;;;;;;;;;;;24.90;99.40;;;;;;8229516;28;19918;-84
2023/05/25 15:24:00;;;;;;;;;;;23.80;99.90;;;;;;8223202;28;20000;-82
2023/05/25 15:28:01;;;;;;;;;;;22.60;99.90;;;;;;8222526;28;20521;-85
2023/05/25 15:32:01;;;;;;;;;;;23.00;99.90;;;;;;8224184;28;19925;-86
2023/05/25 15:36:02;;;;;;;;;;;24.40;99.90;;;;;;8229875;28;19910;-84
2023/05/25 15:40:06;;;;;;;;;;;23.90;99.90;;;;;;8226837;28;19914;-86
2023/05/25 15:44:11;;;;;;;;;;;23.60;99.90;;;;;;8281061;23;20042;-85
2023/05/25 15:48:11;;;;;;;;;;;22.50;99.90;;;;;;8212935;28;20021;-85
2023/05/25 15:52:21;;;;;;;;;;;21.60;99.90;;;;;;8207512;28;19914;-86
2023/05/25 15:56:25;;;;;;;;;;;21.10;99.90;;;;;;8205076;28;19913;-86
2023/05/25 16:04:50;;;;;;;;;;;21.10;99.90;;;;;;8209670;28;19968;-86
2023/05/25 16:08:55;;;;;;;;;;;20.70;99.90;;;;;;8203831;28;19978;-86
2023/05/25 16:13:11;;;;;;;;;;;21.10;99.90;;;;;;8213860;28;20005;-87
2023/05/25 16:17:17;;;;;;;;;;;21.00;99.90;;;;;;8208829;28;20284;-86
2023/05/25 16:21:29;;;;;;;;;;;21.00;99.90;;;;;;8206706;28;20376;-87
2023/05/25 16:25:30;;;;;;;;;;;20.90;99.90;;;;;;8200975;28;19914;-84
2023/05/25 16:29:37;;;;;;;;;;;21.50;99.90;;;;;;8208575;28;19911;-85
2023/05/25 16:33:46;;;;;;;;;;;21.10;99.90;;;;;;8205747;28;19911;-85
2023/05/25 16:37:53;;;;;;;;;;;20.60;99.90;;;;;;8207506;28;19956;-85
2023/05/25 16:41:57;;;;;;;;;;;21.10;99.90;;;;;;8201469;28;19970;-86
2023/05/25 16:46:16;;;;;;;;;;;20.90;99.90;;;;;;8203452;28;20283;-85
2023/05/25 16:50:45;;;;;;;;;;;21.40;99.90;;;;;;8219588;28;19918;-85
2023/05/25 16:54:58;;;;;;;;;;;21.50;99.90;;;;;;8196502;28;19918;-84
2023/05/25 16:59:01;;;;;;;;;;;21.20;99.90;;;;;;8196186;28;20001;-85
2023/05/25 17:03:14;;;;;;;;;;;20.60;99.90;;;;;;8196522;28;20442;-85
2023/05/25 17:07:18;;;;;;;;;;;20.90;99.90;;;;;;8202871;28;19926;-84
2023/05/25 17:11:58;;;;;;;;;;;20.40;99.90;;;;;;8208310;28;19921;-85
2023/05/25 17:15:58;;;;;;;;;;;20.30;99.90;;;;;;8207752;28;19910;-85
2023/05/25 17:20:22;;;;;;;;;;;;;;;;;;;;;
2023/05/25 17:24:46;;;;;;;;;;;20.40;99.90;;;;;;8212239;28;19915;-84
2023/05/25 17:29:14;;;;;;;;;;;19.80;99.90;;;;;;8214616;28;20360;-84
2023/05/25 17:33:37;;;;;;;;;;;20.10;99.90;;;;;;8205239;28;20375;-84
2023/05/25 17:37:41;;;;;;;;;;;19.50;99.90;;;;;;8179519;28;19918;-85
2023/05/25 17:41:51;;;;;;;;;;;19.70;99.90;;;;;;8207667;28;19921;-85
2023/05/25 17:45:55;;;;;;;;;;;20.00;99.90;;;;;;8215388;28;19926;-85
2023/05/25 17:49:58;;;;;;;;;;;20.20;99.90;;;;;;8204406;28;20205;-85
2023/05/25 17:54:14;;;;;;;;;;;20.40;99.90;;;;;;8212913;28;19910;-85
2023/05/25 17:58:14;;;;;;;;;;;20.70;99.90;;;;;;8204926;28;19957;-85
2023/05/25 18:02:45;;;;;;;;;;;20.40;99.90;;;;;;8217452;28;19910;-84
2023/05/25 18:06:50;;;;;;;;;;;19.80;99.90;;;;;;8201217;28;19919;-85
2023/05/25 18:10:59;;;;;;;;;;;19.60;99.90;;;;;;8206414;28;19974;-85
2023/05/25 18:19:29;;;;;;;;;;;18.80;99.90;;;;;;8201953;28;19938;-85
2023/05/25 18:23:46;;;;;;;;;;;18.30;99.90;;;;;;8213804;28;19922;-85
2023/05/25 18:32:31;;;;;;;;;;;17.30;99.90;;;;;;8212087;28;20005;-85
2023/05/25 18:36:54;;;;;;;;;;;17.20;99.90;;;;;;8203263;28;19921;-84
2023/05/25 18:41:00;;;;;;;;;;;16.90;99.90;;;;;;8216921;28;19922;-85
2023/05/25 18:45:04;;;;;;;;;;;16.50;99.90;;;;;;8213757;28;19925;-85
2023/05/25 18:49:11;;;;;;;;;;;16.50;99.90;;;;;;8204084;28;19919;-85
2023/05/25 18:53:17;;;;;;;;;;;15.90;99.90;;;;;;8211204;28;19945;-85
2023/05/25 18:57:33;;;;;;;;;;;15.70;99.90;;;;;;8208018;28;19929;-85
2023/05/25 19:01:45;;;;;;;;;;;16.00;99.90;;;;;;8196871;28;20010;-84
2023/05/25 19:05:58;;;;;;;;;;;15.80;99.90;;;;;;8210691;28;19925;-85
2023/05/25 19:09:59;;;;;;;;;;;15.10;99.90;;;;;;8214240;28;19910;-85
2023/05/25 19:14:02;;;;;;;;;;;15.50;99.90;;;;;;8208021;28;20312;-85
2023/05/25 19:18:03;;;;;;;;;;;15.00;99.90;;;;;;8219203;28;19969;-85
2023/05/25 19:22:05;;;;;;;;;;;14.50;99.90;;;;;;8217257;28;19903;-84
2023/05/25 19:26:08;;;;;;;;;;;15.00;99.90;;;;;;8234482;28;19985;-85
2023/05/25 19:30:09;;;;;;;;;;;14.70;99.90;;;;;;8223423;28;19910;-85
2023/05/25 19:34:09;;;;;;;;;;;14.40;99.90;;;;;;8207536;28;19915;-85
2023/05/25 19:38:36;;;;;;;;;;;14.50;99.90;;;;;;8203246;28;19910;-85
2023/05/25 19:42:37;;;;;;;;;;;14.20;99.90;;;;;;8184780;28;19933;-85
2023/05/25 19:46:39;;;;;;;;;;;14.20;99.90;;;;;;8205960;28;20508;-85
2023/05/25 19:50:40;;;;;;;;;;;13.70;99.90;;;;;;8217269;28;19914;-84
2023/05/25 19:54:44;;;;;;;;;;;13.80;99.90;;;;;;8214522;28;20013;-84
2023/05/25 19:58:48;;;;;;;;;;;14.10;99.90;;;;;;8203995;28;19915;-86
2023/05/25 20:02:51;;;;;;;;;;;14.10;99.90;;;;;;8215209;28;19989;-85
2023/05/25 20:07:06;;;;;;;;;;;12.40;99.90;;;;;;8201328;28;19914;-84
2023/05/25 20:11:09;;;;;;;;;;;13.50;99.90;;;;;;8201669;28;20371;-85
2023/05/25 20:15:11;;;;;;;;;;;13.90;99.90;;;;;;8207924;28;20013;-85
2023/05/25 20:19:12;;;;;;;;;;;14.00;99.90;;;;;;8201219;28;19961;-85
2023/05/25 20:23:13;;;;;;;;;;;14.60;99.90;;;;;;8200321;28;20492;-85
2023/05/25 20:27:13;;;;;;;;;;;14.30;99.90;;;;;;8203098;28;20287;-85
2023/05/25 20:31:14;;;;;;;;;;;14.30;99.90;;;;;;8203122;28;19957;-85
2023/05/25 20:35:16;;;;;;;;;;;13.60;99.90;;;;;;8212855;28;20295;-85
2023/05/25 20:39:16;;;;;;;;;;;13.90;99.90;;;;;;8212264;28;19978;-85
2023/05/25 20:43:17;;;;;;;;;;;13.70;99.90;;;;;;8205014;28;20062;-85
2023/05/25 20:47:17;;;;;;;;;;;14.40;99.90;;;;;;8196873;28;19924;-84
2023/05/25 20:51:18;;;;;;;;;;;14.40;99.90;;;;;;8207159;28;20403;-85
2023/05/25 20:55:19;;;;;;;;;;;14.60;99.90;;;;;;8206273;28;19911;-85
2023/05/25 20:59:20;;;;;;;;;;;14.40;99.90;;;;;;8215685;28;19918;-85
2023/05/25 21:03:21;;;;;;;;;;;13.70;99.90;;;;;;8211042;28;20283;-85
2023/05/25 21:07:22;;;;;;;;;;;14.20;99.90;;;;;;8213570;28;19914;-84
2023/05/25 21:11:24;;;;;;;;;;;13.90;99.90;;;;;;8215160;28;20311;-85
2023/05/25 21:15:28;;;;;;;;;;;14.00;99.90;;;;;;8214700;28;19934;-86
2023/05/25 21:19:36;;;;;;;;;;;13.70;99.90;;;;;;8206866;28;19932;-85
2023/05/25 21:23:37;;;;;;;;;;;13.20;99.90;;;;;;8219304;28;19914;-85
2023/05/25 21:27:37;;;;;;;;;;;13.30;99.90;;;;;;8222005;28;19919;-85
2023/05/25 21:31:38;;;;;;;;;;;13.40;99.90;;;;;;8210149;28;20005;-85
2023/05/25 21:35:39;;;;;;;;;;;13.40;99.90;;;;;;8205375;28;19910;-85
2023/05/25 21:39:39;;;;;;;;;;;13.50;99.90;;;;;;8200378;28;20388;-84
2023/05/25 21:43:40;;;;;;;;;;;12.90;99.90;;;;;;8213455;28;19925;-86
2023/05/25 21:47:41;;;;;;;;;;;13.10;99.90;;;;;;8209729;28;21049;-85
2023/05/25 21:51:41;;;;;;;;;;;13.00;99.90;;;;;;8205097;28;20417;-85
2023/05/25 21:55:42;;;;;;;;;;;12.90;99.90;;;;;;8206788;28;19921;-85
2023/05/25 21:59:43;;;;;;;;;;;13.10;99.90;;;;;;8202840;28;20265;-85
2023/05/25 22:03:43;;;;;;;;;;;12.80;99.90;;;;;;8218374;28;20319;-85
2023/05/25 22:08:11;;;;;;;;;;;12.60;99.90;;;;;;8206334;28;20396;-85
2023/05/25 22:12:11;;;;;;;;;;;12.60;99.90;;;;;;8206051;28;19911;-85
2023/05/25 22:16:15;;;;;;;;;;;12.80;99.90;;;;;;8206330;28;19921;-85
2023/05/25 22:20:16;;;;;;;;;;;12.60;99.90;;;;;;8210826;28;19914;-84
2023/05/25 22:24:17;;;;;;;;;;;13.60;99.90;;;;;;8204812;28;19942;-85
2023/05/25 22:28:17;;;;;;;;;;;12.70;99.90;;;;;;8218534;28;19919;-85
2023/05/25 22:32:18;;;;;;;;;;;12.00;99.90;;;;;;8204266;28;19911;-83
2023/05/25 22:36:19;;;;;;;;;;;12.30;99.90;;;;;;8210658;28;19965;-83
2023/05/25 22:40:19;;;;;;;;;;;12.50;99.90;;;;;;8206348;28;20521;-83
2023/05/25 22:44:20;;;;;;;;;;;11.70;99.90;;;;;;8205248;28;19973;-83
2023/05/25 22:48:20;;;;;;;;;;;11.40;99.90;;;;;;8204548;28;19915;-84
2023/05/25 22:52:21;;;;;;;;;;;11.50;99.90;;;;;;8209985;28;19934;-83
2023/05/25 22:56:43;;;;;;;;;;;11.30;99.90;;;;;;8209738;28;19917;-84
2023/05/25 23:00:44;;;;;;;;;;;10.90;99.90;;;;;;8215038;28;19910;-83
2023/05/25 23:04:45;;;;;;;;;;;11.40;99.90;;;;;;8204005;28;19911;-84
2023/05/25 23:08:46;;;;;;;;;;;11.80;99.90;;;;;;8206219;28;19918;-85
2023/05/25 23:12:46;;;;;;;;;;;10.90;99.90;;;;;;8207898;28;19918;-85
2023/05/25 23:16:47;;;;;;;;;;;11.00;99.90;;;;;;8206489;28;20376;-85
2023/05/25 23:20:49;;;;;;;;;;;11.40;99.90;;;;;;8204682;28;20387;-84
2023/05/25 23:24:49;;;;;;;;;;;11.70;99.90;;;;;;8210573;28;19910;-84
2023/05/25 23:28:50;;;;;;;;;;;11.80;99.90;;;;;;8203452;28;19915;-85
2023/05/25 23:32:50;;;;;;;;;;;12.10;99.90;;;;;;8211202;28;19911;-85
2023/05/25 23:36:52;;;;;;;;;;;11.00;99.90;;;;;;8205188;28;19953;-85
2023/05/25 23:40:53;;;;;;;;;;;10.40;99.90;;;;;;8208977;28;19918;-84
2023/05/25 23:44:53;;;;;;;;;;;10.80;99.90;;;;;;8205715;28;19969;-85
2023/05/25 23:48:54;;;;;;;;;;;10.70;99.90;;;;;;8202448;28;20661;-84
2023/05/25 23:52:54;;;;;;;;;;;11.20;99.90;;;;;;8204074;28;20335;-84
2023/05/25 23:56:55;;;;;;;;;;;11.50;99.90;;;;;;8218261;28;19910;-84
